Time;durP1;ratioP1;P1;durP2;ratioP2;P2;SDS_P1;SDS_P2;PMS_P1;PMS_P2;Temp;Humidity;BMP_temperature;BMP_pressure;BME280_temperature;BME280_humidity;BME280_pressure;Samples;Min_cycle;Max_cycle;Signal;HPM_P1;HPM_P2
2023/08/20 00:00:32;;;;;;;6.40;5.30;;;;;;;27.06;53.40;95367.22;6275380;22;20199;-80
2023/08/20 00:03:02;;;;;;;11.02;5.28;;;;;;;27.05;53.54;95370.16;6273404;22;20260;-81
2023/08/20 00:05:29;;;;;;;5.60;5.10;;;;;;;27.01;53.73;95374.44;6273316;22;20200;-83
2023/08/20 00:07:56;;;;;;;6.28;4.57;;;;;;;26.98;54.19;95380.28;6273202;22;20639;-81
2023/08/20 00:10:22;;;;;;;6.13;4.57;;;;;;;26.97;54.46;95408.56;6273421;22;20180;-82
2023/08/20 00:12:49;;;;;;;7.68;5.05;;;;;;;26.91;54.50;95422.13;6272910;22;20179;-81
2023/08/20 00:15:18;;;;;;;5.85;5.18;;;;;;;26.94;55.00;95422.34;6273511;22;20196;-80
2023/08/20 00:17:45;;;;;;;6.63;5.20;;;;;;;26.88;53.98;95397.03;6273761;22;20186;-81
2023/08/20 00:20:15;;;;;;;7.55;4.80;;;;;;;26.81;54.47;95391.31;6273513;22;20207;-81
2023/08/20 00:22:45;;;;;;;8.00;5.18;;;;;;;26.82;54.72;95404.22;6274118;22;20179;-80
2023/08/20 00:25:13;;;;;;;6.32;4.97;;;;;;;26.83;54.19;95397.88;6273310;22;20195;-81
2023/08/20 00:27:39;;;;;;;5.70;4.57;;;;;;;26.83;54.70;95434.88;6273650;22;20509;-80
2023/08/20 00:30:06;;;;;;;5.55;4.70;;;;;;;26.87;55.38;95448.31;6274353;22;20279;-80
2023/08/20 00:32:34;;;;;;;8.48;5.70;;;;;;;26.83;55.82;95484.28;6274120;22;20176;-81
2023/08/20 00:35:02;;;;;;;5.97;4.60;;;;;;;26.71;56.70;95489.19;6272903;22;20180;-82
2023/08/20 00:37:29;;;;;;;8.65;5.05;;;;;;;26.67;56.55;95494.22;6273872;22;20180;-81
2023/08/20 00:39:57;;;;;;;7.25;5.53;;;;;;;26.64;56.66;95505.34;6273782;22;20196;-82
2023/08/20 00:42:25;;;;;;;7.20;5.47;;;;;;;26.58;57.21;95514.38;6274147;22;20186;-80
2023/08/20 00:44:51;;;;;;;6.22;5.35;;;;;;;26.57;56.95;95515.44;6273033;22;20214;-82
2023/08/20 00:47:19;;;;;;;8.52;4.85;;;;;;;26.56;57.84;95536.84;6273649;22;20176;-81
2023/08/20 00:49:48;;;;;;;5.40;4.30;;;;;;;26.51;57.54;95529.00;6273297;22;20226;-82
2023/08/20 00:52:17;;;;;;;5.80;4.40;;;;;;;26.52;57.89;95538.50;6273871;22;20183;-81
2023/08/20 00:54:45;;;;;;;7.13;5.13;;;;;;;26.48;58.06;95567.31;6273035;22;20184;-81
2023/08/20 00:57:14;;;;;;;4.70;4.30;;;;;;;26.44;58.22;95556.50;6272874;22;20183;-81
2023/08/20 00:59:40;;;;;;;5.47;4.97;;;;;;;26.38;58.15;95565.53;6273561;22;20192;-82
2023/08/20 01:02:07;;;;;;;6.68;5.03;;;;;;;26.34;58.30;95569.03;6272918;22;20489;-81
2023/08/20 01:04:34;;;;;;;5.28;4.22;;;;;;;26.23;58.88;95583.31;6273149;22;20184;-82
2023/08/20 01:07:12;;;;;;;5.15;4.65;;;;;;;26.20;59.09;95584.66;6272882;22;20202;-81
2023/08/20 01:09:48;;;;;;;5.70;4.70;;;;;;;26.17;59.27;95604.44;6273545;22;20208;-82
2023/08/20 01:12:16;;;;;;;6.38;5.35;;;;;;;25.92;60.37;95636.28;6273803;22;20179;-81
2023/08/20 01:14:42;;;;;;;5.03;4.63;;;;;;;25.88;60.46;95621.28;6272925;22;20176;-80
2023/08/20 01:17:09;;;;;;;6.10;5.35;;;;;;;25.78;60.52;95636.09;6274495;22;20200;-80
2023/08/20 01:19:36;;;;;;;7.95;6.40;;;;;;;25.77;60.65;95639.00;6274055;22;20693;-81
2023/08/20 01:22:22;;;;;;;7.75;7.05;;;;;;;25.86;61.01;95652.41;6274475;22;20179;-81
2023/08/20 01:25:00;;;;;;;6.30;4.97;;;;;;;25.95;60.24;95624.41;6276349;22;20615;-81
2023/08/20 01:27:40;;;;;;;6.47;5.20;;;;;;;25.93;59.89;95603.56;6281310;22;20190;-82
2023/08/20 01:30:09;;;;;;;5.75;5.18;;;;;;;25.99;59.31;95583.19;6278513;22;20179;-82
2023/08/20 01:32:36;;;;;;;8.40;5.70;;;;;;;25.94;59.92;95613.06;6279108;22;20176;-80
2023/08/20 01:35:03;;;;;;;6.72;6.13;;;;;;;25.92;60.30;95614.41;6277367;22;20175;-81
2023/08/20 01:37:30;;;;;;;6.22;5.30;;;;;;;25.92;59.94;95611.75;6278002;22;20176;-80
2023/08/20 01:39:56;;;;;;;7.65;5.22;;;;;;;25.91;60.11;95618.88;6277620;22;20196;-80
2023/08/20 01:42:23;;;;;;;5.75;5.18;;;;;;;25.94;59.34;95602.50;6277600;22;20643;-81
2023/08/20 01:44:49;;;;;;;5.00;4.47;;;;;;;25.96;59.49;95602.25;6277224;22;20192;-81
2023/08/20 01:47:17;;;;;;;6.45;4.82;;;;;;;25.88;59.58;95606.22;6278488;22;20176;-81
2023/08/20 01:49:43;;;;;;;9.05;4.90;;;;;;;25.91;59.76;95597.78;6278713;22;20178;-82
2023/08/20 01:52:09;;;;;;;6.20;5.60;;;;;;;25.85;59.95;95604.13;6279214;22;20176;-80
2023/08/20 01:54:36;;;;;;;6.30;5.22;;;;;;;25.67;60.88;95653.00;6280225;22;20176;-81
2023/08/20 01:57:02;;;;;;;5.70;4.80;;;;;;;25.63;60.77;95632.72;6279529;22;20922;-81
2023/08/20 01:59:29;;;;;;;7.63;5.38;;;;;;;25.63;60.52;95630.88;6279615;22;20199;-81
2023/08/20 02:01:58;;;;;;;8.98;4.95;;;;;;;25.67;59.60;95608.16;6278468;22;20181;-82
2023/08/20 02:04:26;;;;;;;5.18;4.68;;;;;;;25.65;60.14;95612.13;6277956;22;20172;-81
2023/08/20 02:06:52;;;;;;;6.57;5.07;;;;;;;25.69;59.50;95597.34;6276669;22;20733;-82
2023/08/20 02:09:19;;;;;;;9.60;4.93;;;;;;;25.71;59.13;95590.75;6277502;22;20172;-81
2023/08/20 02:11:45;;;;;;;7.63;4.72;;;;;;;25.72;59.40;95588.91;6277383;22;20203;-82
2023/08/20 02:14:12;;;;;;;7.22;4.60;;;;;;;25.62;59.46;95610.00;6277531;22;20183;-81
2023/08/20 02:16:38;;;;;;;5.55;4.35;;;;;;;25.63;59.56;95588.66;6276852;22;20229;-81
2023/08/20 02:19:06;;;;;;;6.60;4.40;;;;;;;25.61;59.49;95585.47;6276548;22;20179;-81
2023/08/20 02:21:34;;;;;;;8.05;4.45;;;;;;;25.61;59.08;95580.22;6276537;22;20186;-81
2023/08/20 02:24:00;;;;;;;5.65;4.88;;;;;;;25.58;59.28;95580.78;6277247;22;20168;-82
2023/08/20 02:26:27;;;;;;;7.20;4.70;;;;;;;25.57;59.12;95578.41;6276477;22;20188;-82
2023/08/20 02:28:53;;;;;;;6.75;4.97;;;;;;;25.60;59.60;95585.75;6277009;22;20180;-80
2023/08/20 02:31:20;;;;;;;6.38;4.45;;;;;;;25.57;59.44;95587.09;6276700;22;20180;-81
2023/08/20 02:33:47;;;;;;;5.13;4.63;;;;;;;25.47;59.98;95605.59;6275710;22;20172;-80
2023/08/20 02:36:13;;;;;;;6.13;4.38;;;;;;;25.32;60.35;95616.97;6275342;22;20267;-81
2023/08/20 02:38:41;;;;;;;6.72;4.53;;;;;;;25.25;60.43;95620.94;6274069;22;20179;-81
2023/08/20 02:41:07;;;;;;;6.68;4.45;;;;;;;25.10;61.19;95650.75;6274392;22;20566;-81
2023/08/20 02:43:34;;;;;;;5.78;4.88;;;;;;;25.03;61.45;95648.41;6274104;22;20180;-80
2023/08/20 02:46:00;;;;;;;7.03;4.70;;;;;;;24.95;61.22;95650.78;6275269;22;20196;-80
2023/08/20 02:48:27;;;;;;;7.78;4.70;;;;;;;24.93;61.44;95651.03;6273921;22;20517;-81
2023/08/20 02:50:54;;;;;;;4.93;4.40;;;;;;;25.01;60.95;95649.75;6274240;22;20175;-81
2023/08/20 02:53:20;;;;;;;6.30;5.00;;;;;;;25.05;61.15;95654.19;6274302;22;20508;-81
2023/08/20 02:55:48;;;;;;;5.80;5.18;;;;;;;25.06;61.15;95653.13;6273927;22;20505;-81
2023/08/20 02:58:15;;;;;;;6.53;5.00;;;;;;;25.07;61.25;95659.19;6274317;22;20169;-81
2023/08/20 03:00:42;;;;;;;7.70;4.38;;;;;;;25.10;61.06;95648.91;6273864;22;20254;-81
2023/08/20 03:03:09;;;;;;;5.70;4.80;;;;;;;25.02;61.77;95664.47;6274066;22;20177;-83
2023/08/20 03:05:36;;;;;;;5.25;4.75;;;;;;;24.93;61.77;95672.09;6273990;22;20272;-81
2023/08/20 03:08:04;;;;;;;5.35;4.38;;;;;;;24.94;61.75;95665.00;6274755;22;20184;-80
2023/08/20 03:10:31;;;;;;;9.43;4.43;;;;;;;24.78;62.06;95683.44;6274425;22;20176;-81
2023/08/20 03:12:59;;;;;;;6.10;4.47;;;;;;;24.77;62.07;95695.03;6273910;22;20173;-81
2023/08/20 03:15:25;;;;;;;5.18;4.68;;;;;;;24.85;62.22;95696.31;6273978;22;20197;-81
2023/08/20 03:17:51;;;;;;;6.28;4.35;;;;;;;24.87;61.97;95688.94;6274311;22;20176;-80
2023/08/20 03:20:18;;;;;;;4.35;3.92;;;;;;;24.85;61.69;95688.41;6274106;22;20196;-82
2023/08/20 03:22:44;;;;;;;5.65;4.28;;;;;;;24.79;61.57;95679.75;6273862;22;20176;-81
2023/08/20 03:25:11;;;;;;;6.43;4.30;;;;;;;24.68;62.44;95691.31;6273151;22;20196;-82
2023/08/20 03:27:37;;;;;;;6.25;4.57;;;;;;;24.49;62.95;95729.72;6274065;22;20172;-81
2023/08/20 03:30:07;;;;;;;4.90;4.50;;;;;;;24.46;63.50;95738.13;6274622;22;20190;-82
2023/08/20 03:32:33;;;;;;;6.80;4.40;;;;;;;24.51;63.63;95746.06;6273350;22;20177;-81
2023/08/20 03:35:00;;;;;;;4.90;4.30;;;;;;;24.53;63.23;95730.81;6273397;22;20670;-81
2023/08/20 03:37:26;;;;;;;5.53;4.43;;;;;;;24.39;63.45;95743.66;6273781;22;20176;-82
2023/08/20 03:39:53;;;;;;;4.88;4.38;;;;;;;24.37;63.47;95740.50;6273593;22;20218;-82
2023/08/20 03:42:19;;;;;;;5.43;4.43;;;;;;;24.26;64.33;95769.66;6274282;22;20176;-81
2023/08/20 03:44:46;;;;;;;4.90;4.18;;;;;;;24.13;65.07;95797.22;6273339;22;20180;-80
2023/08/20 03:47:14;;;;;;;6.10;4.45;;;;;;;24.17;64.78;95794.88;6273310;22;20531;-80
2023/08/20 03:49:40;;;;;;;5.30;4.80;;;;;;;24.18;65.27;95804.34;6272620;22;20187;-81
2023/08/20 03:52:07;;;;;;;6.60;4.50;;;;;;;24.32;64.66;95800.22;6273665;22;20179;-81
2023/08/20 03:54:34;;;;;;;4.85;4.32;;;;;;;24.37;63.65;95771.31;6272823;22;20493;-80
2023/08/20 03:57:00;;;;;;;5.43;4.10;;;;;;;24.35;63.48;95750.50;6273537;22;20199;-80
2023/08/20 03:59:26;;;;;;;4.75;4.28;;;;;;;24.32;63.64;95758.13;6274015;22;20183;-80
2023/08/20 04:01:53;;;;;;;7.65;4.30;;;;;;;24.17;63.62;95768.56;6272917;22;20196;-81
2023/08/20 04:04:21;;;;;;;4.72;4.32;;;;;;;24.18;64.02;95780.69;6272929;22;20183;-81
2023/08/20 04:06:48;;;;;;;8.43;4.25;;;;;;;24.22;64.16;95787.81;6273817;22;20223;-80
2023/08/20 04:09:14;;;;;;;5.32;4.20;;;;;;;24.28;63.90;95788.63;6273107;22;20258;-83
2023/08/20 04:11:40;;;;;;;6.03;4.30;;;;;;;24.28;64.19;95786.78;6273794;22;20196;-81
2023/08/20 04:14:07;;;;;;;6.05;4.03;;;;;;;24.34;63.66;95777.88;6272733;22;20705;-80
2023/08/20 04:16:33;;;;;;;5.68;4.22;;;;;;;24.32;63.99;95781.81;6273322;22;20226;-81
2023/08/20 04:18:59;;;;;;;6.47;4.55;;;;;;;24.28;63.69;95776.25;6273506;22;20183;-81
2023/08/20 04:21:27;;;;;;;5.93;4.50;;;;;;;24.32;63.46;95772.06;6273213;22;20192;-81
2023/08/20 04:23:54;;;;;;;6.30;4.38;;;;;;;24.30;63.77;95781.25;6273740;22;20176;-83
2023/08/20 04:26:20;;;;;;;7.47;4.55;;;;;;;24.21;64.25;95794.13;6272483;22;20702;-81
2023/08/20 04:28:46;;;;;;;6.53;4.57;;;;;;;24.22;63.85;95798.31;6273303;22;20176;-81
2023/08/20 04:31:13;;;;;;;7.22;4.40;;;;;;;24.20;64.19;95797.78;6272955;22;20179;-81
2023/08/20 04:33:39;;;;;;;5.15;4.43;;;;;;;24.13;64.43;95817.47;6272209;22;20172;-81
2023/08/20 04:36:06;;;;;;;6.68;4.45;;;;;;;24.18;64.45;95815.66;6272568;22;20200;-80
2023/08/20 04:38:34;;;;;;;5.93;4.43;;;;;;;24.24;64.24;95803.38;6272344;22;20179;-81
2023/08/20 04:41:00;;;;;;;6.28;4.47;;;;;;;24.28;64.14;95805.22;6272047;22;20535;-81
2023/08/20 04:43:26;;;;;;;8.30;4.40;;;;;;;24.29;64.03;95804.16;6272922;22;20179;-81
2023/08/20 04:45:53;;;;;;;6.97;4.18;;;;;;;24.32;64.30;95800.22;6273122;22;20578;-81
2023/08/20 04:48:20;;;;;;;6.03;4.70;;;;;;;24.37;64.01;95797.63;6273472;22;20590;-81
2023/08/20 04:50:47;;;;;;;4.90;4.30;;;;;;;24.41;64.46;95806.59;6273742;22;20168;-81
2023/08/20 04:53:14;;;;;;;5.97;4.70;;;;;;;24.37;65.07;95829.22;6273730;22;20176;-81
2023/08/20 04:55:42;;;;;;;5.60;4.60;;;;;;;24.35;64.96;95826.84;6274236;22;20196;-80
2023/08/20 04:58:09;;;;;;;6.45;4.40;;;;;;;24.38;65.00;95828.94;6273965;22;20176;-81
2023/08/20 05:00:35;;;;;;;9.85;4.40;;;;;;;24.49;67.46;95914.03;6274177;22;20192;-77
2023/08/20 05:03:01;;;;;;;6.00;4.43;;;;;;;24.73;68.00;95919.66;6274431;22;20184;-80
2023/08/20 05:05:28;;;;;;;6.28;4.63;;;;;;;24.97;66.66;95873.41;6274884;22;20191;-78
2023/08/20 05:07:54;;;;;;;5.70;4.85;;;;;;;25.15;66.00;95863.44;6276218;22;20176;-78
2023/08/20 05:10:21;;;;;;;4.63;4.13;;;;;;;25.29;65.82;95860.03;6274533;22;20168;-77
2023/08/20 05:12:48;;;;;;;5.72;4.20;;;;;;;25.40;63.89;95793.06;6273443;22;20168;-83
2023/08/20 05:15:15;;;;;;;6.53;4.32;;;;;;;25.33;63.00;95760.13;6271692;22;20693;-83
2023/08/20 05:17:41;;;;;;;5.88;4.50;;;;;;;25.23;62.84;95749.56;6271862;22;20183;-83
2023/08/20 05:20:09;;;;;;;5.40;4.90;;;;;;;25.18;63.28;95770.69;6272484;22;20230;-82
2023/08/20 05:22:36;;;;;;;6.82;4.85;;;;;;;25.08;63.45;95793.31;6272296;22;20658;-83
2023/08/20 05:25:02;;;;;;;5.15;4.68;;;;;;;25.07;64.19;95818.09;6271867;22;20203;-81
2023/08/20 05:27:28;;;;;;;4.70;4.20;;;;;;;25.14;63.55;95802.03;6273446;22;20184;-84
2023/08/20 05:29:56;;;;;;;7.60;4.78;;;;;;;25.24;63.20;95788.84;6272954;22;20183;-80
2023/08/20 05:32:23;;;;;;;4.75;3.97;;;;;;;25.31;62.77;95762.22;6272954;22;20274;-83
2023/08/20 05:34:49;;;;;;;6.95;4.60;;;;;;;25.36;62.29;95741.94;6271621;22;20184;-80
2023/08/20 05:37:16;;;;;;;5.38;4.60;;;;;;;25.40;61.24;95707.94;6270339;22;20253;-83
2023/08/20 05:39:47;;;;;;;6.50;4.55;;;;;;;25.52;61.77;95731.34;6270366;22;20187;-84
2023/08/20 05:42:13;;;;;;;8.90;4.22;;;;;;;25.64;60.73;95687.84;6272098;22;20238;-81
2023/08/20 05:44:40;;;;;;;4.28;3.88;;;;;;;25.72;60.00;95666.19;6276710;22;20191;-81
2023/08/20 05:47:07;;;;;;;6.93;4.32;;;;;;;25.55;59.44;95623.50;6272314;22;20283;-81
2023/08/20 05:49:34;;;;;;;7.85;4.60;;;;;;;25.51;59.13;95635.63;6274421;22;20176;-81
2023/08/20 05:52:00;;;;;;;5.97;4.40;;;;;;;25.45;58.77;95597.16;6274104;22;20172;-82
2023/08/20 05:54:27;;;;;;;6.28;3.90;;;;;;;25.49;58.45;95590.28;6273918;22;20176;-81
2023/08/20 05:56:53;;;;;;;6.07;3.75;;;;;;;25.45;57.62;95552.34;6273265;22;20196;-81
2023/08/20 05:59:20;;;;;;;8.23;4.68;;;;;;;25.50;57.39;95554.97;6274246;22;20184;-82
2023/08/20 06:01:46;;;;;;;5.78;4.30;;;;;;;25.60;58.40;95585.75;6273301;22;20197;-81
2023/08/20 06:04:14;;;;;;;5.32;4.30;;;;;;;25.62;57.51;95541.44;6275988;22;20497;-82
2023/08/20 06:06:41;;;;;;;6.13;3.80;;;;;;;25.69;56.37;95500.56;6274864;22;20188;-82
2023/08/20 06:09:07;;;;;;;4.35;3.83;;;;;;;25.73;55.53;95475.22;6275364;22;20545;-81
2023/08/20 06:11:33;;;;;;;5.40;4.22;;;;;;;25.76;55.60;95482.59;6276303;22;20168;-82
2023/08/20 06:14:00;;;;;;;7.38;4.20;;;;;;;25.86;55.13;95484.34;6276866;22;20183;-79
2023/08/20 06:16:26;;;;;;;4.68;3.90;;;;;;;25.91;55.09;95441.31;6275641;22;20208;-80
2023/08/20 06:18:53;;;;;;;7.45;4.15;;;;;;;25.92;54.56;95432.34;6276604;22;20179;-80
2023/08/20 06:21:21;;;;;;;33.15;30.00;;;;;;;26.00;55.16;95456.25;6276770;22;20688;-81
2023/08/20 06:23:47;;;;;;;27.20;24.75;;;;;;;26.06;54.49;95426.13;6271988;22;20176;-81
2023/08/20 06:26:14;;;;;;;8.68;7.78;;;;;;;26.15;55.36;95497.59;6274684;22;20259;-80
2023/08/20 06:28:40;;;;;;;7.72;5.57;;;;;;;26.19;54.57;95443.16;6274813;22;20662;-81
2023/08/20 06:31:06;;;;;;;6.32;4.53;;;;;;;26.25;54.67;95463.19;6274067;22;20172;-83
2023/08/20 06:33:33;;;;;;;7.50;4.18;;;;;;;26.33;54.17;95449.44;6270887;22;20706;-84
2023/08/20 06:35:59;;;;;;;6.05;4.40;;;;;;;26.39;54.23;95443.00;6270154;22;20200;-84
2023/08/20 06:38:30;;;;;;;8.82;4.43;;;;;;;26.42;54.09;95426.59;6271398;22;20176;-83
2023/08/20 06:40:57;;;;;;;7.78;4.00;;;;;;;26.50;53.67;95441.06;6274349;22;20901;-81
2023/08/20 06:43:23;;;;;;;5.13;4.63;;;;;;;26.51;52.99;95391.69;6274056;22;20184;-81
2023/08/20 06:45:49;;;;;;;10.55;6.28;;;;;;;26.51;53.52;95418.88;6274823;22;20242;-81
2023/08/20 06:48:19;;;;;;;5.90;5.07;;;;;;;26.60;53.43;95413.75;6273378;22;20259;-81
2023/08/20 06:50:46;;;;;;;5.47;4.82;;;;;;;26.68;53.52;95413.13;6274431;22;20689;-81
2023/08/20 06:53:12;;;;;;;7.90;5.22;;;;;;;26.58;53.06;95403.47;6272791;22;20184;-79
2023/08/20 06:55:40;;;;;;;5.90;4.40;;;;;;;26.64;52.48;95375.94;6275996;22;20192;-79
2023/08/20 06:58:06;;;;;;;7.68;4.28;;;;;;;26.70;52.50;95372.16;6277762;22;20179;-79
2023/08/20 07:00:33;;;;;;;5.20;4.57;;;;;;;26.77;52.61;95387.66;6274565;22;20180;-80
2023/08/20 07:02:59;;;;;;;7.85;4.80;;;;;;;26.89;53.09;95403.91;6275515;22;20759;-79
2023/08/20 07:05:26;;;;;;;7.85;4.88;;;;;;;27.09;52.77;95395.72;6275923;22;20200;-81
2023/08/20 07:07:52;;;;;;;7.90;4.25;;;;;;;27.24;53.19;95394.72;6276281;22;20180;-79
2023/08/20 07:10:20;;;;;;;8.85;4.80;;;;;;;27.38;51.58;95353.25;6276117;22;20176;-79
2023/08/20 07:12:48;;;;;;;5.50;4.60;;;;;;;27.48;52.16;95349.69;6277878;22;20180;-79
2023/08/20 07:15:15;;;;;;;6.90;4.60;;;;;;;27.49;50.41;95291.22;6278837;22;20392;-79
2023/08/20 07:17:41;;;;;;;6.13;4.65;;;;;;;27.52;49.99;95282.69;6275544;22;20207;-81
2023/08/20 07:20:09;;;;;;;6.03;4.00;;;;;;;27.64;50.11;95278.84;6276270;22;20176;-81
2023/08/20 07:22:35;;;;;;;8.25;4.40;;;;;;;27.72;49.16;95239.25;6275266;22;20196;-81
2023/08/20 07:25:02;;;;;;;4.40;3.88;;;;;;;27.76;49.40;95229.66;6274163;22;20680;-81
2023/08/20 07:27:28;;;;;;;4.88;4.20;;;;;;;27.94;49.03;95238.56;6273862;22;20259;-81
2023/08/20 07:29:56;;;;;;;5.88;4.03;;;;;;;28.15;49.53;95245.03;6273910;22;20180;-80
2023/08/20 07:32:22;;;;;;;5.05;3.78;;;;;;;28.40;49.21;95256.22;6275020;22;20796;-79
2023/08/20 07:34:49;;;;;;;6.45;4.00;;;;;;;28.63;48.56;95236.66;6275297;22;20176;-81
2023/08/20 07:37:15;;;;;;;6.75;3.58;;;;;;;28.69;47.79;95169.19;6275775;22;20210;-80
2023/08/20 07:39:42;;;;;;;5.57;4.00;;;;;;;28.70;46.03;95063.97;6275040;22;20662;-81
2023/08/20 07:42:08;;;;;;;8.25;4.13;;;;;;;28.83;46.35;95100.28;6276206;22;20207;-80
2023/08/20 07:44:34;;;;;;;5.82;3.75;;;;;;;28.99;45.80;95087.41;6274715;22;20239;-82
2023/08/20 07:47:02;;;;;;;6.13;3.85;;;;;;;29.06;45.63;95096.47;6273994;22;20192;-81
2023/08/20 07:49:29;;;;;;;7.53;3.65;;;;;;;29.18;45.70;95107.31;6274960;22;20352;-81
2023/08/20 07:51:56;;;;;;;5.40;4.00;;;;;;;29.23;45.51;95076.44;6275041;22;20180;-81
2023/08/20 07:54:22;;;;;;;7.45;4.10;;;;;;;29.28;44.65;95058.50;6274633;22;20198;-79
2023/08/20 07:56:48;;;;;;;6.05;3.72;;;;;;;29.33;42.50;94932.94;6273919;22;20196;-79
2023/08/20 07:59:15;;;;;;;6.47;3.58;;;;;;;29.60;44.18;95014.13;6275434;22;20180;-80
2023/08/20 08:01:41;;;;;;;7.00;4.20;;;;;;;29.84;44.75;95039.13;6272374;22;20792;-80
2023/08/20 08:04:09;;;;;;;7.82;6.28;;;;;;;30.09;44.28;95024.31;6274701;22;20176;-80
2023/08/20 08:06:35;;;;;;;17.63;15.73;;;;;;;30.22;43.80;95041.97;6272705;22;20199;-82
2023/08/20 08:09:19;;;;;;;8.05;7.25;;;;;;;30.42;43.16;94976.75;6273432;22;20176;-80
2023/08/20 08:11:45;;;;;;;6.82;4.40;;;;;;;30.55;42.90;94980.38;6273441;22;20164;-80
2023/08/20 08:14:11;;;;;;;8.02;4.20;;;;;;;30.70;42.69;94939.97;6273143;22;20651;-80
2023/08/20 08:16:38;;;;;;;5.18;3.90;;;;;;;30.72;40.64;94866.00;6273036;22;20761;-79
2023/08/20 08:19:04;;;;;;;5.97;3.65;;;;;;;30.80;41.90;94907.69;6273274;22;20173;-80
2023/08/20 08:21:32;;;;;;;4.90;4.10;;;;;;;30.87;42.00;94929.25;6274105;22;20195;-81
2023/08/20 08:23:58;;;;;;;6.40;4.18;;;;;;;30.95;41.35;94914.38;6273556;22;20176;-79
2023/08/20 08:26:25;;;;;;;4.80;3.92;;;;;;;31.11;42.16;94919.94;6272807;22;20197;-82
2023/08/20 08:28:51;;;;;;;5.68;4.32;;;;;;;31.28;40.73;94879.91;6272274;22;20176;-82
2023/08/20 08:31:18;;;;;;;6.80;4.13;;;;;;;31.20;39.81;94822.22;6271705;22;20179;-81
2023/08/20 08:33:44;;;;;;;4.35;3.90;;;;;;;31.35;39.77;94818.19;6272236;22;20647;-81
2023/08/20 08:36:11;;;;;;;5.88;4.47;;;;;;;31.55;38.75;94796.09;6271517;22;20203;-82
2023/08/20 08:38:39;;;;;;;5.55;4.40;;;;;;;31.67;38.72;94793.47;6271991;22;20176;-81
2023/08/20 08:41:10;;;;;;;7.65;4.15;;;;;;;31.85;40.72;94869.41;6274227;22;20183;-82
2023/08/20 08:43:38;;;;;;;6.53;4.15;;;;;;;31.90;38.21;94744.06;6272811;22;20184;-81
2023/08/20 08:46:07;;;;;;;9.48;4.30;;;;;;;32.03;37.96;94733.41;6272670;22;20204;-82
2023/08/20 08:48:35;;;;;;;6.10;3.97;;;;;;;32.03;38.21;94715.53;6273318;22;20624;-81
2023/08/20 08:51:02;;;;;;;4.15;3.75;;;;;;;32.25;37.77;94719.66;6274376;22;20658;-82
2023/08/20 08:53:28;;;;;;;5.45;4.07;;;;;;;32.31;37.72;94720.22;6274134;22;20262;-82
2023/08/20 08:55:56;;;;;;;4.72;3.80;;;;;;;32.34;36.91;94680.31;6273642;22;20210;-83
2023/08/20 08:58:22;;;;;;;5.32;4.15;;;;;;;32.45;37.24;94654.78;6273430;22;20176;-82
2023/08/20 09:00:50;;;;;;;4.85;3.55;;;;;;;32.64;38.26;94726.13;6274491;22;20195;-81
2023/08/20 09:03:16;;;;;;;6.82;4.47;;;;;;;32.80;37.16;94683.56;6274296;22;20344;-81
2023/08/20 09:05:56;;;;;;;4.43;3.95;;;;;;;32.78;36.16;94597.78;6273080;22;20203;-81
2023/08/20 09:08:25;;;;;;;5.90;4.72;;;;;;;32.83;36.70;94638.31;6273461;22;20666;-81
2023/08/20 09:10:52;;;;;;;6.30;4.25;;;;;;;32.87;36.35;94638.44;6273775;22;20172;-81
2023/08/20 09:13:23;;;;;;;4.90;4.03;;;;;;;32.95;35.72;94590.25;6274236;22;20570;-80
2023/08/20 09:15:51;;;;;;;6.63;3.85;;;;;;;32.98;35.46;94577.34;6273994;22;20196;-81
2023/08/20 09:18:18;;;;;;;4.03;3.72;;;;;;;33.14;35.94;94616.25;6273585;22;20177;-81
2023/08/20 09:20:44;;;;;;;7.15;3.95;;;;;;;33.14;35.63;94578.91;6272948;22;20178;-81
2023/08/20 09:23:13;;;;;;;4.78;3.80;;;;;;;33.25;35.34;94577.31;6273534;22;20192;-81
2023/08/20 09:25:39;;;;;;;4.22;3.80;;;;;;;33.02;35.72;94599.56;6273119;22;20200;-80
2023/08/20 09:28:06;;;;;;;4.30;3.72;;;;;;;32.77;35.78;94588.25;6273678;22;20394;-81
2023/08/20 09:30:34;;;;;;;9.70;4.32;;;;;;;32.71;35.40;94595.72;6273446;22;20176;-81
2023/08/20 09:33:05;;;;;;;4.40;3.65;;;;;;;32.61;35.65;94606.84;6272664;22;20668;-80
2023/08/20 09:35:31;;;;;;;4.75;3.97;;;;;;;32.66;35.93;94609.28;6273159;22;20223;-79
2023/08/20 09:38:00;;;;;;;4.47;3.70;;;;;;;32.71;35.54;94611.69;6272614;22;20214;-80
2023/08/20 09:40:28;;;;;;;6.53;4.20;;;;;;;32.65;35.78;94606.94;6272498;22;20199;-80
2023/08/20 09:42:55;;;;;;;13.13;11.82;;;;;;;32.81;35.78;94629.13;6272442;22;20581;-80
2023/08/20 09:45:22;;;;;;;6.00;5.50;;;;;;;33.00;35.75;94631.91;6274610;22;20687;-80
2023/08/20 09:47:51;;;;;;;7.40;5.50;;;;;;;33.20;36.08;94675.47;6274900;22;20172;-80
2023/08/20 09:50:19;;;;;;;5.60;4.85;;;;;;;33.40;36.06;94658.50;6275125;22;20176;-80
2023/08/20 09:52:56;;;;;;;4.57;4.18;;;;;;;33.29;35.22;94628.84;6273806;22;20183;-80
2023/08/20 09:55:23;;;;;;;4.70;4.13;;;;;;;33.42;35.64;94636.78;6273424;22;20196;-80
2023/08/20 09:57:50;;;;;;;6.03;3.97;;;;;;;33.44;35.15;94621.22;6273767;22;20203;-80
2023/08/20 10:00:16;;;;;;;4.25;3.85;;;;;;;33.31;35.39;94593.81;6274806;22;20176;-81
2023/08/20 10:02:44;;;;;;;6.40;3.88;;;;;;;33.39;35.16;94589.44;6272987;22;20196;-81
2023/08/20 10:05:14;;;;;;;7.35;3.58;;;;;;;33.44;34.89;94575.84;6276575;22;20179;-81
2023/08/20 10:07:41;;;;;;;9.57;4.25;;;;;;;33.59;35.08;94585.72;6273724;22;20163;-80
2023/08/20 10:10:11;;;;;;;6.50;3.78;;;;;;;33.67;34.58;94586.66;6274353;22;20183;-80
2023/08/20 10:12:39;;;;;;;5.82;3.75;;;;;;;33.77;34.55;94594.13;6274643;22;20172;-81
2023/08/20 10:15:09;;;;;;;5.55;4.20;;;;;;;33.64;34.05;94534.72;6275538;22;20531;-80
2023/08/20 10:17:39;;;;;;;4.10;3.50;;;;;;;33.75;33.45;94513.59;6274064;22;20180;-81
2023/08/20 10:20:07;;;;;;;6.80;4.00;;;;;;;33.81;33.60;94525.56;6275242;22;20264;-81
2023/08/20 10:22:36;;;;;;;9.73;6.85;;;;;;;33.93;34.00;94544.13;6274595;22;20254;-81
2023/08/20 10:25:06;;;;;;;4.47;3.78;;;;;;;34.02;34.09;94531.34;6273655;22;20195;-80
2023/08/20 10:27:35;;;;;;;3.90;3.50;;;;;;;34.14;34.68;94584.66;6273904;22;20185;-81
2023/08/20 10:30:03;;;;;;;4.57;3.53;;;;;;;34.16;33.85;94555.69;6274065;22;20634;-80
2023/08/20 10:32:50;;;;;;;4.15;3.80;;;;;;;33.99;33.63;94499.22;6273645;22;20229;-80
2023/08/20 10:35:18;;;;;;;5.32;3.50;;;;;;;34.03;33.55;94497.41;6273821;22;20160;-80
2023/08/20 10:38:13;;;;;;;4.82;3.35;;;;;;;34.13;33.38;94518.19;6273593;22;20501;-80
2023/08/20 10:41:06;;;;;;;5.22;3.75;;;;;;;34.20;32.99;94510.34;6240017;22;20187;-80
2023/08/20 10:43:34;;;;;;;6.10;3.88;;;;;;;34.13;33.55;94505.63;6238441;22;20195;-81
2023/08/20 10:46:08;;;;;;;4.47;3.63;;;;;;;34.21;33.58;94527.91;6274373;22;20192;-80
2023/08/20 10:48:36;;;;;;;7.55;3.88;;;;;;;34.23;33.34;94521.09;6275129;22;20155;-81
2023/08/20 10:51:08;;;;;;;20.50;18.52;;;;;;;34.16;33.43;94518.28;6275239;22;20228;-81
2023/08/20 10:53:35;;;;;;;8.40;7.50;;;;;;;34.17;33.52;94508.34;6276275;22;20172;-80
2023/08/20 10:56:13;;;;;;;6.13;5.53;;;;;;;34.36;34.09;94553.03;6272922;22;20834;-81
2023/08/20 10:58:42;;;;;;;6.20;3.72;;;;;;;34.33;33.67;94535.81;6274505;22;20160;-81
2023/08/20 11:01:24;;;;;;;6.43;3.90;;;;;;;34.43;34.00;94550.53;6273078;22;20590;-79
2023/08/20 11:03:51;;;;;;;4.40;3.70;;;;;;;34.41;33.21;94489.38;6274419;22;20176;-82
2023/08/20 11:06:19;;;;;;;5.72;3.70;;;;;;;34.36;33.37;94500.34;6274433;22;20701;-81
2023/08/20 11:08:47;;;;;;;4.32;3.72;;;;;;;34.33;33.42;94525.13;6273273;22;20184;-82
2023/08/20 11:11:14;;;;;;;4.55;3.58;;;;;;;34.20;33.97;94548.53;6274578;22;20176;-80
2023/08/20 11:13:42;;;;;;;3.90;3.50;;;;;;;34.23;34.20;94550.50;6273132;22;20179;-79
2023/08/20 11:16:09;;;;;;;4.82;3.80;;;;;;;34.30;33.89;94545.31;6273492;22;20512;-79
2023/08/20 11:18:36;;;;;;;3.83;3.35;;;;;;;34.39;34.19;94553.13;6274456;22;20574;-79
2023/08/20 11:21:03;;;;;;;4.18;3.55;;;;;;;34.32;33.65;94515.53;6275610;22;20187;-79
2023/08/20 11:23:31;;;;;;;4.50;3.95;;;;;;;34.40;33.44;94497.75;6275403;22;20193;-79
2023/08/20 11:25:58;;;;;;;4.10;3.60;;;;;;;34.45;32.95;94481.41;6276185;22;20204;-79
2023/08/20 11:28:28;;;;;;;4.43;3.20;;;;;;;34.40;32.88;94482.50;6281787;22;20238;-79
2023/08/20 11:30:57;;;;;;;4.00;3.35;;;;;;;34.41;32.93;94465.31;6275843;22;20180;-80
2023/08/20 11:33:23;;;;;;;3.45;2.97;;;;;;;34.43;32.31;94425.66;6275527;22;20247;-79
2023/08/20 11:35:50;;;;;;;4.45;3.20;;;;;;;34.43;32.12;94425.66;6273770;22;20196;-79